Time;durP1;ratioP1;P1;durP2;ratioP2;P2;SDS_P1;SDS_P2;PMS_P1;PMS_P2;Temp;Humidity;BMP_temperature;BMP_pressure;BME280_temperature;BME280_humidity;BME280_pressure;Samples;Min_cycle;Max_cycle;Signal;HPM_P1;HPM_P2
2023/03/15 00:01:58;;;;;;;10.63;5.88;;;;;;;8.60;47.04;99047.66;5075835;28;20346;-68
2023/03/15 00:04:24;;;;;;;9.15;6.03;;;;;;;8.39;48.15;99039.41;5077797;28;20352;-68
2023/03/15 00:06:50;;;;;;;8.63;5.97;;;;;;;7.95;50.49;99042.28;5076047;28;20130;-68
2023/03/15 00:09:15;;;;;;;10.05;5.90;;;;;;;7.79;51.46;99029.06;5076448;28;20618;-63
2023/03/15 00:11:41;;;;;;;9.63;5.85;;;;;;;7.19;53.26;99039.72;5075604;28;20038;-64
2023/03/15 00:14:06;;;;;;;7.85;5.65;;;;;;;7.35;52.81;99024.00;5076568;28;20052;-68
2023/03/15 00:16:32;;;;;;;11.00;5.95;;;;;;;7.33;53.41;99030.41;5075289;28;20073;-64
2023/03/15 00:18:57;;;;;;;9.48;5.57;;;;;;;7.19;53.64;99028.34;5075604;28;20055;-68
2023/03/15 00:21:23;;;;;;;8.57;5.82;;;;;;;7.07;54.15;99019.91;5075509;28;20046;-68
2023/03/15 00:23:49;;;;;;;9.30;5.85;;;;;;;7.08;53.93;99023.38;5074985;28;20064;-68
2023/03/15 00:26:15;;;;;;;7.40;5.65;;;;;;;6.95;54.68;99027.25;5075648;28;20039;-68
2023/03/15 00:28:41;;;;;;;10.20;5.93;;;;;;;6.75;56.18;99028.47;5075681;28;20036;-69
2023/03/15 00:31:14;;;;;;;11.55;7.20;;;;;;;6.64;56.70;99020.81;5074368;28;20036;-64
2023/03/15 00:33:40;;;;;;;12.10;6.25;;;;;;;6.61;56.99;99007.97;5074326;28;20181;-68
2023/03/15 00:36:07;;;;;;;11.43;5.90;;;;;;;6.71;57.13;99008.69;5075596;28;20040;-68
2023/03/15 00:38:33;;;;;;;10.30;5.55;;;;;;;6.90;57.09;99011.09;5076381;28;20388;-64
2023/03/15 00:41:07;;;;;;;9.57;4.85;;;;;;;7.03;56.39;99005.41;5075956;28;20033;-68
2023/03/15 00:43:34;;;;;;;9.05;6.38;;;;;;;7.21;56.58;99000.88;5074795;28;20048;-65
2023/03/15 00:46:00;;;;;;;11.07;6.25;;;;;;;7.48;55.20;98999.03;5076454;28;20091;-68
2023/03/15 00:48:26;;;;;;;19.25;8.75;;;;;;;7.69;54.82;99002.88;5076006;28;20045;-68
2023/03/15 00:51:02;;;;;;;18.08;8.05;;;;;;;7.93;53.33;98996.81;5076714;28;20035;-69
2023/03/15 00:53:28;;;;;;;14.70;7.93;;;;;;;7.99;52.85;98995.34;5076591;28;20048;-64
2023/03/15 00:55:53;;;;;;;12.98;7.65;;;;;;;7.95;52.40;98996.66;5074717;28;20042;-68
2023/03/15 00:58:19;;;;;;;12.07;6.93;;;;;;;7.97;52.87;98992.84;5076237;28;20044;-68
2023/03/15 01:00:44;;;;;;;11.38;6.47;;;;;;;7.93;52.88;98995.97;5074651;28;20355;-65
2023/03/15 01:03:10;;;;;;;10.15;5.82;;;;;;;7.74;53.07;98994.47;5075971;28;20379;-64
2023/03/15 01:05:35;;;;;;;14.27;7.90;;;;;;;7.86;52.99;98989.72;5075452;28;20078;-69
2023/03/15 01:08:01;;;;;;;13.00;7.05;;;;;;;7.68;53.75;98992.50;5075154;28;20046;-68
2023/03/15 01:10:27;;;;;;;11.48;7.47;;;;;;;7.59;54.16;98986.38;5074770;28;20033;-68
2023/03/15 01:12:52;;;;;;;50.38;20.40;;;;;;;7.40;55.11;98994.56;5074803;28;20407;-64
2023/03/15 01:15:18;;;;;;;13.30;7.30;;;;;;;7.25;56.09;98985.59;5074324;28;20044;-68
2023/03/15 01:17:43;;;;;;;16.60;6.88;;;;;;;7.17;55.79;98990.81;5074782;28;20237;-68
2023/03/15 01:20:12;;;;;;;102.68;35.50;;;;;;;6.97;57.00;98979.72;5076007;28;20044;-68
2023/03/15 01:22:38;;;;;;;23.27;9.35;;;;;;;7.02;57.08;98977.44;5074064;28;20040;-68
2023/03/15 01:25:04;;;;;;;14.30;8.48;;;;;;;7.15;56.39;98979.63;5074402;28;20077;-63
2023/03/15 01:27:29;;;;;;;20.15;11.85;;;;;;;7.08;56.73;98979.44;5075946;28;20123;-68
2023/03/15 01:29:55;;;;;;;14.20;8.35;;;;;;;7.03;57.43;98979.91;5074427;28;20036;-65
2023/03/15 01:32:20;;;;;;;10.98;6.75;;;;;;;7.08;58.16;98975.97;5075643;28;20285;-64
2023/03/15 01:34:46;;;;;;;23.73;10.80;;;;;;;7.04;58.96;98975.47;5075231;28;20047;-65
2023/03/15 01:37:13;;;;;;;16.02;8.50;;;;;;;7.24;58.15;98974.22;5075126;28;20036;-68
2023/03/15 01:39:39;;;;;;;21.50;10.88;;;;;;;7.44;57.44;98974.00;5075174;28;20049;-69
2023/03/15 01:42:05;;;;;;;15.82;8.15;;;;;;;7.53;57.78;98968.59;5074241;28;20314;-69
2023/03/15 01:44:52;;;;;;;8.90;5.93;;;;;;;7.78;56.38;98952.81;5075370;28;20040;-65
2023/03/15 01:47:18;;;;;;;9.68;5.03;;;;;;;7.78;56.02;98961.53;5075319;28;20052;-64
2023/03/15 01:49:47;;;;;;;8.00;5.45;;;;;;;7.60;57.26;98958.22;5073396;28;20058;-68
2023/03/15 01:52:20;;;;;;;7.35;5.30;;;;;;;7.62;57.08;98957.06;5075632;28;20040;-64
2023/03/15 01:54:57;;;;;;;9.85;5.47;;;;;;;7.85;56.38;98966.97;5074993;28;20377;-65
2023/03/15 01:57:51;;;;;;;7.32;5.28;;;;;;;7.89;56.24;98963.84;5074911;28;21068;-64
2023/03/15 02:00:19;;;;;;;7.65;5.68;;;;;;;8.00;55.56;98958.25;5070827;28;20116;-69
2023/03/15 02:02:51;;;;;;;8.13;5.40;;;;;;;8.12;54.98;98957.94;5072540;28;20362;-68
2023/03/15 02:05:32;;;;;;;14.25;7.60;;;;;;;8.11;54.96;98961.56;5074414;28;20037;-69
2023/03/15 02:07:58;;;;;;;12.63;7.20;;;;;;;8.04;55.14;98964.03;5075370;28;20040;-63
2023/03/15 02:10:43;;;;;;;16.83;7.68;;;;;;;7.88;55.52;98950.84;5077975;28;20051;-69
2023/03/15 02:13:11;;;;;;;15.23;7.95;;;;;;;7.94;55.62;98944.91;5077947;28;20316;-64
2023/03/15 02:15:36;;;;;;;15.95;8.15;;;;;;;8.06;54.78;98946.22;5077083;28;20718;-69
2023/03/15 02:18:02;;;;;;;14.63;8.00;;;;;;;8.05;54.75;98946.41;5078571;28;20375;-69
2023/03/15 02:20:36;;;;;;;13.55;7.45;;;;;;;8.04;54.47;98947.38;5077205;28;20249;-63
2023/03/15 02:23:10;;;;;;;12.13;6.40;;;;;;;8.12;54.26;98947.38;5077545;28;20385;-68
2023/03/15 02:26:05;;;;;;;11.50;6.57;;;;;;;8.20;54.49;98947.38;5077654;28;20346;-65
2023/03/15 02:28:31;;;;;;;10.68;6.95;;;;;;;8.14;54.06;98943.59;5076746;28;20040;-64
2023/03/15 02:30:57;;;;;;;15.93;8.38;;;;;;;8.08;54.04;98943.44;5077094;28;20435;-69
2023/03/15 02:33:25;;;;;;;16.73;9.82;;;;;;;8.13;54.31;98941.94;5076680;28;20033;-64
2023/03/15 02:35:50;;;;;;;22.45;12.05;;;;;;;8.21;54.32;98949.03;5078352;28;20028;-68
2023/03/15 02:38:16;;;;;;;14.68;7.95;;;;;;;8.26;53.50;98941.44;5076488;28;20043;-64
2023/03/15 02:40:43;;;;;;;11.15;7.15;;;;;;;8.26;54.06;98941.44;5078329;28;20025;-69
2023/03/15 02:43:14;;;;;;;9.77;6.00;;;;;;;8.20;53.52;98942.09;5077854;28;20035;-69
2023/03/15 02:45:41;;;;;;;14.02;6.40;;;;;;;8.05;53.76;98939.31;5077588;28;20078;-69
2023/03/15 02:48:09;;;;;;;10.40;6.07;;;;;;;8.05;52.78;98941.13;5078268;28;20222;-68
2023/03/15 02:50:35;;;;;;;12.27;6.80;;;;;;;8.09;53.92;98945.91;5076992;28;20047;-68
2023/03/15 02:53:01;;;;;;;10.60;6.35;;;;;;;7.81;53.94;98934.03;5078417;28;20078;-69
2023/03/15 02:55:28;;;;;;;13.70;6.90;;;;;;;7.90;53.86;98943.59;5075360;28;20061;-69
2023/03/15 02:57:53;;;;;;;10.27;5.47;;;;;;;7.95;54.45;98938.66;5077667;28;20044;-69
2023/03/15 03:00:19;;;;;;;10.77;6.55;;;;;;;7.81;53.39;98939.31;5076143;28;20096;-68
2023/03/15 03:02:46;;;;;;;11.02;6.60;;;;;;;7.85;53.08;98938.81;5078461;28;20274;-68
2023/03/15 03:05:13;;;;;;;11.75;6.45;;;;;;;7.68;54.07;98937.97;5076467;28;20028;-64
2023/03/15 03:07:41;;;;;;;12.65;7.30;;;;;;;7.58;54.33;98936.47;5077836;28;20031;-64
2023/03/15 03:10:08;;;;;;;10.70;6.18;;;;;;;7.61;55.39;98933.53;5076840;28;20032;-64
2023/03/15 03:12:33;;;;;;;14.90;7.63;;;;;;;7.63;54.32;98929.75;5077725;28;20096;-68
2023/03/15 03:14:58;;;;;;;10.82;7.07;;;;;;;7.45;53.79;98928.22;5078117;28;20253;-68
2023/03/15 03:17:24;;;;;;;10.90;6.35;;;;;;;7.13;54.00;98921.88;5076920;28;20038;-68
2023/03/15 03:19:50;;;;;;;10.35;6.75;;;;;;;7.22;52.98;98920.91;5076630;28;20048;-64
2023/03/15 03:22:16;;;;;;;11.18;6.85;;;;;;;7.26;53.32;98926.69;5077242;28;20308;-64
2023/03/15 03:24:44;;;;;;;13.80;8.00;;;;;;;7.24;53.82;98921.56;5078284;28;20032;-64
2023/03/15 03:27:16;;;;;;;12.30;7.03;;;;;;;7.32;53.04;98918.16;5076820;28;20036;-69
2023/03/15 03:29:42;;;;;;;17.90;9.43;;;;;;;7.39;54.24;98918.34;5076216;28;20222;-64
2023/03/15 03:32:08;;;;;;;27.85;15.45;;;;;;;7.34;54.34;98911.75;5076723;28;20044;-68
2023/03/15 03:34:34;;;;;;;24.48;12.57;;;;;;;7.21;55.78;98923.69;5077273;28;20246;-68
2023/03/15 03:36:59;;;;;;;21.95;12.18;;;;;;;7.23;56.35;98924.38;5076908;28;20101;-69
2023/03/15 03:39:25;;;;;;;46.83;20.83;;;;;;;7.26;56.43;98924.88;5077344;28;20040;-65
2023/03/15 03:41:50;;;;;;;17.30;9.10;;;;;;;7.27;54.83;98917.78;5077376;28;20204;-68
2023/03/15 03:44:16;;;;;;;12.55;8.57;;;;;;;7.29;54.85;98919.31;5075519;28;20029;-63
2023/03/15 03:46:42;;;;;;;11.73;7.15;;;;;;;7.25;55.27;98925.03;5076494;28;20104;-64
2023/03/15 03:49:07;;;;;;;15.93;8.30;;;;;;;7.18;55.08;98916.13;5076103;28;20315;-64
2023/03/15 03:51:33;;;;;;;17.45;8.57;;;;;;;7.00;55.62;98916.25;5076983;28;20028;-64
2023/03/15 03:54:02;;;;;;;13.20;8.07;;;;;;;6.70;57.12;98907.06;5075837;28;20318;-63
2023/03/15 03:56:27;;;;;;;9.30;6.78;;;;;;;6.71;56.45;98911.34;5076719;28;20037;-68
2023/03/15 03:58:53;;;;;;;72.13;27.08;;;;;;;6.73;56.42;98907.59;5075423;28;20276;-63
2023/03/15 04:01:18;;;;;;;64.15;29.50;;;;;;;6.84;56.16;98897.75;5077478;28;20054;-68
2023/03/15 04:03:44;;;;;;;29.52;17.05;;;;;;;6.90;55.97;98902.38;5074606;28;20038;-64
2023/03/15 04:06:09;;;;;;;28.40;14.48;;;;;;;7.00;56.09;98901.28;5076545;28;20463;-64
2023/03/15 04:08:35;;;;;;;20.30;11.07;;;;;;;7.13;55.01;98905.25;5074952;28;20036;-64
2023/03/15 04:11:02;;;;;;;18.77;8.65;;;;;;;7.02;56.20;98903.75;5076169;28;20336;-68
2023/03/15 04:13:29;;;;;;;18.08;9.82;;;;;;;6.89;56.87;98916.53;5075825;28;20332;-65
2023/03/15 04:15:57;;;;;;;14.60;9.00;;;;;;;6.61;57.61;98927.25;5076670;28;20084;-64
2023/03/15 04:18:23;;;;;;;20.40;9.90;;;;;;;6.43;58.13;98917.78;5074819;28;20083;-63
2023/03/15 04:20:53;;;;;;;14.90;8.65;;;;;;;6.17;59.32;98910.69;5077766;28;20090;-69
2023/03/15 04:23:20;;;;;;;13.85;8.25;;;;;;;6.36;58.86;98909.69;5075530;28;20132;-64
2023/03/15 04:25:50;;;;;;;15.50;8.52;;;;;;;6.27;59.83;98919.34;5074868;28;20040;-65
2023/03/15 04:28:16;;;;;;;17.90;9.15;;;;;;;6.45;59.00;98911.38;5076215;28;20043;-68
2023/03/15 04:30:42;;;;;;;14.55;8.07;;;;;;;6.39;58.43;98912.84;5073102;28;20035;-68
2023/03/15 04:33:09;;;;;;;16.40;7.72;;;;;;;6.07;59.68;98909.97;5075138;28;20044;-69
2023/03/15 04:35:36;;;;;;;99.88;34.63;;;;;;;6.34;58.92;98907.22;5074730;28;20295;-64
2023/03/15 04:38:02;;;;;;;20.50;10.00;;;;;;;6.47;58.66;98900.72;5074778;28;20040;-64
2023/03/15 04:40:29;;;;;;;27.50;12.88;;;;;;;6.56;58.03;98897.16;5076004;28;20032;-68
2023/03/15 04:42:55;;;;;;;38.47;9.93;;;;;;;6.64;57.79;98905.91;5075539;28;20040;-65
2023/03/15 04:45:24;;;;;;;11.40;7.35;;;;;;;6.71;57.92;98912.19;5076086;28;20033;-69
2023/03/15 04:47:51;;;;;;;12.93;8.00;;;;;;;6.88;56.70;98917.50;5077487;28;20032;-63
2023/03/15 04:50:16;;;;;;;15.13;9.07;;;;;;;6.87;56.87;98905.34;5073994;28;20230;-69
2023/03/15 04:52:42;;;;;;;11.52;7.43;;;;;;;6.80;58.53;98906.94;5074383;28;20052;-69
2023/03/15 04:55:08;;;;;;;14.43;9.13;;;;;;;6.84;58.74;98910.91;5076426;28;20334;-64
2023/03/15 04:57:34;;;;;;;18.08;10.15;;;;;;;6.91;58.35;98898.78;5076864;28;20040;-64
2023/03/15 04:59:59;;;;;;;23.88;10.38;;;;;;;7.09;58.27;98903.94;5076304;28;20101;-64
2023/03/15 05:02:25;;;;;;;18.92;10.65;;;;;;;7.25;58.58;98902.16;5076109;28;20032;-64
2023/03/15 05:04:50;;;;;;;26.48;13.98;;;;;;;7.33;57.84;98911.91;5076677;28;20046;-68
2023/03/15 05:07:16;;;;;;;21.90;10.02;;;;;;;7.28;57.81;98912.41;5076262;28;20047;-68
2023/03/15 05:09:44;;;;;;;18.23;10.65;;;;;;;7.29;58.69;98918.50;5076860;28;20330;-68
2023/03/15 05:12:10;;;;;;;27.65;12.95;;;;;;;7.32;58.72;98911.09;5076590;28;20092;-68
2023/03/15 05:14:36;;;;;;;36.08;15.13;;;;;;;7.50;57.90;98913.59;5075255;28;20052;-64
2023/03/15 05:17:02;;;;;;;14.48;8.35;;;;;;;7.44;58.10;98918.69;5076339;28;20040;-68
2023/03/15 05:19:28;;;;;;;13.32;7.50;;;;;;;7.19;59.09;98917.78;5076194;28;20341;-63
2023/03/15 05:21:55;;;;;;;12.30;7.43;;;;;;;7.08;60.05;98910.16;5075862;28;20051;-64
2023/03/15 05:24:21;;;;;;;36.30;15.57;;;;;;;7.01;61.08;98916.06;5076089;28;20036;-63
2023/03/15 05:26:46;;;;;;;17.55;10.48;;;;;;;6.95;61.43;98916.72;5076459;28;20062;-64
2023/03/15 05:29:12;;;;;;;18.00;7.15;;;;;;;6.84;62.73;98913.53;5075789;28;20330;-68
2023/03/15 05:31:38;;;;;;;14.38;7.72;;;;;;;6.74;63.54;98924.19;5076334;28;20063;-64
2023/03/15 05:34:04;;;;;;;15.00;7.78;;;;;;;6.88;63.96;98918.34;5076960;28;20322;-64
2023/03/15 05:36:30;;;;;;;14.80;7.57;;;;;;;7.15;62.91;98921.72;5076325;28;20086;-69
2023/03/15 05:38:56;;;;;;;22.38;10.90;;;;;;;7.18;62.65;98909.06;5075606;28;20092;-64
2023/03/15 05:41:22;;;;;;;39.33;21.08;;;;;;;7.30;62.24;98909.59;5076221;28;20041;-64
2023/03/15 05:43:48;;;;;;;21.25;11.27;;;;;;;7.33;62.08;98909.28;5075250;28;20032;-69
2023/03/15 05:46:13;;;;;;;33.33;15.48;;;;;;;7.20;62.17;98906.25;5076559;28;20043;-65
2023/03/15 05:48:39;;;;;;;27.02;16.55;;;;;;;7.35;62.02;98905.50;5077244;28;20250;-65
2023/03/15 05:51:04;;;;;;;26.55;10.52;;;;;;;7.48;61.16;98905.03;5076280;28;20242;-64
2023/03/15 05:53:30;;;;;;;26.48;12.70;;;;;;;7.62;60.83;98904.38;5076748;28;20030;-68
2023/03/15 05:55:55;;;;;;;22.33;11.80;;;;;;;7.74;61.09;98899.59;5076249;28;20037;-69
2023/03/15 05:58:20;;;;;;;25.58;9.57;;;;;;;7.84;59.91;98910.00;5076727;28;20040;-64
2023/03/15 06:00:48;;;;;;;14.30;8.05;;;;;;;7.87;59.79;98905.22;5076351;28;20045;-65
2023/03/15 06:03:13;;;;;;;14.77;7.93;;;;;;;7.88;59.98;98898.94;5076884;28;20044;-68
2023/03/15 06:05:39;;;;;;;15.48;8.07;;;;;;;7.82;60.13;98904.06;5075955;28;20040;-68
2023/03/15 06:08:04;;;;;;;13.30;8.40;;;;;;;7.81;60.58;98900.59;5077022;28;20038;-69
2023/03/15 06:10:30;;;;;;;14.40;7.40;;;;;;;7.78;60.46;98906.19;5077006;28;20032;-63
2023/03/15 06:12:55;;;;;;;11.70;6.60;;;;;;;7.68;61.19;98905.53;5076958;28;20033;-69
2023/03/15 06:15:21;;;;;;;10.57;7.00;;;;;;;7.32;62.63;98899.72;5075623;28;20036;-65
2023/03/15 06:17:46;;;;;;;10.63;7.05;;;;;;;7.24;63.82;98900.50;5076766;28;20078;-65
2023/03/15 06:20:12;;;;;;;10.10;6.35;;;;;;;6.85;65.70;98915.19;5076839;28;20021;-68
2023/03/15 06:22:37;;;;;;;12.43;7.03;;;;;;;6.80;66.07;98920.09;5076216;28;20372;-64
2023/03/15 06:25:03;;;;;;;10.15;7.07;;;;;;;6.84;66.70;98916.19;5075877;28;20239;-64
2023/03/15 06:27:29;;;;;;;11.98;7.45;;;;;;;7.06;65.97;98910.34;5069776;28;20329;-64
2023/03/15 06:29:55;;;;;;;13.02;7.45;;;;;;;6.84;67.39;98917.00;5068950;28;20025;-69
2023/03/15 06:32:21;;;;;;;10.57;7.35;;;;;;;6.76;68.21;98916.16;5068596;28;20048;-68
2023/03/15 06:34:46;;;;;;;13.95;8.55;;;;;;;6.67;69.13;98910.03;5070271;28;20032;-68
2023/03/15 06:37:12;;;;;;;12.82;7.43;;;;;;;6.64;69.68;98915.59;5070306;28;20338;-65
2023/03/15 06:39:38;;;;;;;13.38;7.38;;;;;;;6.60;69.20;98914.25;5071080;28;20033;-64
2023/03/15 06:42:07;;;;;;;11.38;6.95;;;;;;;6.58;71.56;98908.34;5070039;28;20214;-69
2023/03/15 06:44:35;;;;;;;13.90;6.68;;;;;;;6.53;71.73;98906.19;5069158;28;20033;-69
2023/03/15 06:47:01;;;;;;;14.13;7.35;;;;;;;6.40;72.64;98903.16;5068403;28;20334;-68
2023/03/15 06:49:27;;;;;;;14.38;7.57;;;;;;;6.06;72.66;98905.69;5068559;28;20024;-64
2023/03/15 06:51:52;;;;;;;12.93;7.72;;;;;;;6.14;74.11;98908.38;5070644;28;20049;-64
2023/03/15 06:54:17;;;;;;;16.90;7.95;;;;;;;6.06;75.13;98908.31;5069078;28;20043;-68
2023/03/15 06:56:43;;;;;;;13.68;7.75;;;;;;;6.07;75.15;98895.03;5072548;28;20028;-68
2023/03/15 06:59:08;;;;;;;15.75;7.78;;;;;;;6.24;74.65;98900.38;5071428;28;20119;-64
2023/03/15 07:01:34;;;;;;;13.90;7.43;;;;;;;6.34;75.64;98909.03;5072730;28;20078;-69
2023/03/15 07:03:59;;;;;;;11.48;7.55;;;;;;;6.14;74.45;98902.28;5069675;28;20453;-64
2023/03/15 07:06:27;;;;;;;10.93;7.22;;;;;;;5.96;76.38;98887.41;5073326;28;20047;-63
2023/03/15 07:08:52;;;;;;;14.40;8.20;;;;;;;5.93;75.89;98903.47;5073545;28;20029;-64
2023/03/15 07:11:18;;;;;;;12.88;7.93;;;;;;;6.11;75.75;98907.88;5071807;28;20066;-64
2023/03/15 07:13:43;;;;;;;13.77;8.02;;;;;;;6.48;73.82;98907.63;5073210;28;20040;-64
2023/03/15 07:16:09;;;;;;;10.05;7.47;;;;;;;6.78;72.33;98901.03;5070805;28;20040;-65
2023/03/15 07:18:34;;;;;;;15.32;7.28;;;;;;;7.07;72.43;98896.19;5073084;28;20032;-64
2023/03/15 07:21:01;;;;;;;12.13;7.30;;;;;;;7.25;69.85;98885.53;5071387;28;20041;-69
2023/03/15 07:23:28;;;;;;;15.65;7.80;;;;;;;7.41;69.50;98882.13;5073326;28;22051;-68
2023/03/15 07:25:54;;;;;;;12.88;7.63;;;;;;;7.47;71.68;98886.75;5072220;28;20125;-69
2023/03/15 07:28:20;;;;;;;15.07;8.38;;;;;;;7.61;68.32;98888.75;5072102;28;20044;-64
2023/03/15 07:30:56;;;;;;;11.75;8.18;;;;;;;7.84;67.21;98897.63;5071430;28;20024;-64
2023/03/15 07:33:23;;;;;;;13.18;8.13;;;;;;;7.83;67.11;98892.53;5071865;28;20024;-64
2023/03/15 07:35:52;;;;;;;13.45;8.90;;;;;;;7.67;69.56;98891.53;5073068;28;20044;-64
2023/03/15 07:38:20;;;;;;;10.35;6.57;;;;;;;7.33;69.78;98893.47;5072259;28;20028;-64
2023/03/15 07:40:46;;;;;;;12.60;8.10;;;;;;;7.32;70.51;98897.09;5070289;28;20334;-64
2023/03/15 07:43:11;;;;;;;16.67;7.88;;;;;;;7.73;69.22;98891.88;5073553;28;20048;-68
2023/03/15 07:45:37;;;;;;;13.27;7.68;;;;;;;7.89;69.10;98887.41;5072763;28;20043;-68
2023/03/15 07:48:02;;;;;;;13.88;7.90;;;;;;;7.74;69.85;98889.06;5073636;28;20264;-64
2023/03/15 07:50:28;;;;;;;15.00;7.97;;;;;;;8.01;69.80;98880.81;5072179;28;20055;-64
2023/03/15 07:52:53;;;;;;;13.07;7.38;;;;;;;8.24;68.82;98880.94;5073145;28;20138;-65
2023/03/15 07:55:19;;;;;;;10.88;7.60;;;;;;;8.39;67.26;98877.66;5071882;28;20062;-68
2023/03/15 07:57:44;;;;;;;12.52;8.13;;;;;;;8.44;65.94;98873.53;5073750;28;20249;-69
2023/03/15 08:00:12;;;;;;;15.13;8.48;;;;;;;8.43;67.34;98881.63;5072213;28;20041;-69
2023/03/15 08:02:42;;;;;;;12.80;7.75;;;;;;;8.65;66.00;98870.31;5071814;28;20029;-64
2023/03/15 08:05:08;;;;;;;13.05;8.68;;;;;;;8.63;65.27;98867.84;5070130;28;20344;-68
2023/03/15 08:07:35;;;;;;;12.50;7.18;;;;;;;8.60;66.18;98876.13;5072367;28;20300;-65
2023/03/15 08:10:01;;;;;;;11.75;7.47;;;;;;;8.98;64.36;98872.81;5072427;28;20031;-68
2023/03/15 08:12:27;;;;;;;14.35;7.93;;;;;;;9.15;63.80;98862.00;5071762;28;20091;-69
2023/03/15 08:14:52;;;;;;;13.75;8.27;;;;;;;9.11;64.17;98858.06;5072018;28;20253;-69
2023/03/15 08:17:18;;;;;;;13.77;8.20;;;;;;;8.97;63.71;98853.50;5071185;28;20048;-64
2023/03/15 08:19:43;;;;;;;15.50;8.27;;;;;;;8.67;66.01;98855.16;5072262;28;20233;-69
2023/03/15 08:22:09;;;;;;;11.48;8.55;;;;;;;8.99;64.68;98838.31;5070694;28;20040;-64
2023/03/15 08:24:35;;;;;;;14.65;8.18;;;;;;;8.78;64.82;98828.38;5071769;28;20036;-65
2023/03/15 08:27:01;;;;;;;15.20;8.98;;;;;;;8.62;65.52;98821.34;5069624;28;20037;-64
2023/03/15 08:29:27;;;;;;;10.80;7.72;;;;;;;8.93;65.53;98808.16;5070353;28;20161;-64
2023/03/15 08:31:53;;;;;;;13.60;8.55;;;;;;;8.99;64.99;98803.16;5071921;28;20385;-69
2023/03/15 08:34:18;;;;;;;12.73;8.35;;;;;;;8.68;66.34;98793.44;5070418;28;20063;-64
2023/03/15 08:36:46;;;;;;;13.43;8.55;;;;;;;8.82;65.51;98794.53;5071579;28;20040;-69
2023/03/15 08:39:11;;;;;;;11.45;7.43;;;;;;;8.87;65.85;98790.38;5070815;28;20369;-69
2023/03/15 08:41:37;;;;;;;13.32;8.30;;;;;;;9.07;64.91;98796.03;5071774;28;20050;-64
2023/03/15 08:44:02;;;;;;;14.20;7.95;;;;;;;9.03;67.52;98796.53;5069997;28;20028;-68
2023/03/15 08:46:27;;;;;;;12.48;8.52;;;;;;;8.96;64.59;98791.97;5070196;28;20040;-69
2023/03/15 08:48:53;;;;;;;15.02;8.48;;;;;;;8.89;66.29;98791.03;5070220;28;20032;-69
2023/03/15 08:51:20;;;;;;;12.93;8.00;;;;;;;8.90;65.93;98786.56;5071989;28;20048;-65
2023/03/15 08:53:45;;;;;;;14.82;8.85;;;;;;;9.15;64.28;98795.97;5069517;28;20037;-64
2023/03/15 08:56:10;;;;;;;15.07;8.30;;;;;;;9.29;66.02;98800.47;5070957;28;20085;-64
2023/03/15 08:58:36;;;;;;;13.00;7.97;;;;;;;9.26;62.54;98797.38;5069827;28;20314;-67
2023/03/15 09:01:03;;;;;;;13.65;8.05;;;;;;;9.33;62.39;98789.56;5071368;28;20048;-69
2023/03/15 09:03:31;;;;;;;11.23;7.32;;;;;;;9.31;62.42;98800.31;5070248;28;20060;-69
2023/03/15 09:05:58;;;;;;;13.70;7.95;;;;;;;9.51;61.71;98795.38;5070530;28;20032;-70
2023/03/15 09:08:25;;;;;;;13.95;8.63;;;;;;;9.45;62.98;98790.81;5071696;28;20191;-65
2023/03/15 09:10:55;;;;;;;13.88;8.20;;;;;;;9.60;62.48;98789.03;5068420;28;20040;-69
2023/03/15 09:13:21;;;;;;;15.82;8.80;;;;;;;9.98;59.87;98789.81;5072203;28;20218;-64
2023/03/15 09:15:50;;;;;;;14.57;8.35;;;;;;;10.06;58.26;98781.78;5068526;28;20048;-69
2023/03/15 09:18:15;;;;;;;13.50;7.85;;;;;;;9.70;59.30;98783.47;5067625;28;20039;-64
2023/03/15 09:20:40;;;;;;;12.52;7.90;;;;;;;9.88;58.83;98776.84;5069553;28;20029;-65
2023/03/15 09:23:06;;;;;;;14.88;9.15;;;;;;;9.99;59.59;98774.75;5069069;28;20036;-64
2023/03/15 09:25:32;;;;;;;13.75;8.77;;;;;;;9.82;60.62;98772.28;5071978;28;20127;-65
2023/03/15 09:27:57;;;;;;;13.07;8.73;;;;;;;9.75;60.33;98768.72;5069681;28;20032;-65
2023/03/15 09:30:23;;;;;;;14.75;8.55;;;;;;;9.96;59.56;98767.19;5071219;28;20086;-64
2023/03/15 09:32:48;;;;;;;14.35;7.88;;;;;;;9.92;59.34;98758.81;5067496;28;20033;-64
2023/03/15 09:35:19;;;;;;;17.23;9.27;;;;;;;9.95;58.65;98762.91;5067895;28;20024;-69
2023/03/15 09:37:45;;;;;;;16.83;9.52;;;;;;;10.37;57.28;98754.34;5069953;28;20433;-65
2023/03/15 09:40:17;;;;;;;11.43;8.45;;;;;;;10.36;58.07;98747.41;5069169;28;20342;-65
2023/03/15 09:42:53;;;;;;;15.63;9.57;;;;;;;10.19;56.91;98754.69;5069446;28;20060;-65
2023/03/15 09:45:51;;;;;;;13.80;8.85;;;;;;;10.68;56.22;98754.13;5070268;28;20326;-69
2023/03/15 09:48:20;;;;;;;13.60;9.45;;;;;;;10.94;55.09;98751.75;5068934;28;20041;-69
2023/03/15 09:50:51;;;;;;;15.90;10.10;;;;;;;11.20;54.20;98767.09;5070744;28;20032;-69
2023/03/15 09:53:20;;;;;;;15.13;9.13;;;;;;;11.30;53.79;98767.59;5069240;28;20170;-64
2023/03/15 09:55:47;;;;;;;17.40;9.70;;;;;;;11.28;52.17;98745.75;5062933;28;20044;-68
2023/03/15 09:58:19;;;;;;;15.43;9.93;;;;;;;11.55;52.02;98743.34;5059399;28;20043;-65
2023/03/15 10:00:52;;;;;;;15.77;9.48;;;;;;;11.75;51.63;98739.84;5056468;28;20068;-69
2023/03/15 10:03:41;;;;;;;16.15;9.82;;;;;;;11.87;50.78;98732.19;5057156;28;20033;-69
2023/03/15 10:06:15;;;;;;;15.90;9.70;;;;;;;12.05;50.65;98731.66;5058243;28;20048;-65
2023/03/15 10:08:40;;;;;;;;;;;;;;;12.14;49.16;98731.31;5060606;28;20040;-65
2023/03/15 10:11:52;;;;;;;17.60;9.82;;;;;;;12.18;48.04;98720.31;5058385;28;20274;-65
2023/03/15 10:14:38;;;;;;;17.60;10.00;;;;;;;12.21;48.58;98709.28;5034492;28;20053;-65
2023/03/15 10:17:19;;;;;;;12.88;8.85;;;;;;;12.24;49.31;98706.25;5059401;28;20283;-65
2023/03/15 10:19:49;;;;;;;14.32;9.30;;;;;;;12.06;49.53;98704.13;5059518;28;20047;-69
2023/03/15 10:22:29;;;;;;;12.57;9.05;;;;;;;12.13;49.37;98702.31;5056964;28;20082;-69
2023/03/15 10:25:12;;;;;;;12.18;9.45;;;;;;;12.25;49.33;98708.69;5068321;28;20047;-65
2023/03/15 10:27:46;;;;;;;13.43;8.95;;;;;;;12.40;49.87;98704.06;5063342;28;20056;-66
2023/03/15 10:30:24;;;;;;;14.00;10.05;;;;;;;12.43;49.75;98702.84;5066582;28;20233;-69
2023/03/15 10:32:59;;;;;;;15.48;9.27;;;;;;;12.51;48.73;98696.56;5063740;28;20036;-65
2023/03/15 10:35:24;;;;;;;15.80;9.20;;;;;;;12.57;47.26;98696.59;5061264;28;20036;-70
2023/03/15 10:37:50;;;;;;;15.35;9.55;;;;;;;12.66;48.13;98692.72;5061857;28;20036;-65
2023/03/15 10:40:38;;;;;;;14.48;9.15;;;;;;;12.65;46.59;98700.91;5065115;28;20066;-66
2023/03/15 10:43:33;;;;;;;11.57;9.05;;;;;;;12.75;48.29;98690.72;5062211;28;20071;-65
2023/03/15 10:46:08;;;;;;;12.90;9.50;;;;;;;12.69;48.05;98689.66;5062618;28;20068;-66
2023/03/15 10:48:39;;;;;;;15.68;9.73;;;;;;;12.68;47.17;98679.25;5066680;28;20037;-65
2023/03/15 10:51:20;;;;;;;14.23;10.07;;;;;;;12.74;47.21;98683.75;5065153;28;20238;-69
2023/03/15 10:54:11;;;;;;;18.08;10.80;;;;;;;12.81;46.79;98678.44;5061970;28;20068;-65
2023/03/15 10:56:45;;;;;;;14.68;11.00;;;;;;;12.93;46.26;98677.66;5059775;28;20055;-69
2023/03/15 10:59:16;;;;;;;22.27;11.73;;;;;;;12.99;46.76;98673.38;5063249;28;20037;-65
2023/03/15 11:01:42;;;;;;;15.70;10.82;;;;;;;13.09;46.47;98671.13;5063407;28;20048;-69
2023/03/15 11:04:07;;;;;;;16.25;9.95;;;;;;;13.15;45.85;98665.00;5061189;28;20660;-65
2023/03/15 11:06:43;;;;;;;16.30;11.18;;;;;;;13.16;46.19;98673.78;5061314;28;20044;-70
2023/03/15 11:09:17;;;;;;;14.48;10.80;;;;;;;13.15;45.80;98672.16;5065272;28;20478;-65
2023/03/15 11:11:53;;;;;;;16.40;10.45;;;;;;;13.14;44.91;98673.97;5069094;28;20165;-65
2023/03/15 11:14:19;;;;;;;17.65;11.57;;;;;;;13.20;44.17;98672.38;5061640;28;20053;-65
2023/03/15 11:16:51;;;;;;;15.68;10.27;;;;;;;13.22;44.48;98668.50;5061475;28;20043;-65
2023/03/15 11:19:21;;;;;;;14.75;10.02;;;;;;;13.24;45.19;98671.75;5061971;28;20056;-62
2023/03/15 11:21:49;;;;;;;14.80;10.70;;;;;;;13.28;45.00;98674.81;5058923;28;20399;-63
2023/03/15 11:24:27;;;;;;;16.52;10.63;;;;;;;13.34;44.66;98674.81;5064226;28;20216;-63
2023/03/15 11:26:55;;;;;;;15.35;9.65;;;;;;;13.31;44.03;98666.44;5062581;28;20396;-67
2023/03/15 11:29:34;;;;;;;16.08;10.18;;;;;;;13.25;43.63;98662.75;5062016;28;20230;-63
2023/03/15 11:32:10;;;;;;;13.50;9.73;;;;;;;13.36;44.52;98656.81;5064148;28;20532;-67
2023/03/15 11:34:38;;;;;;;15.30;10.15;;;;;;;13.40;44.02;98641.28;5064270;28;20074;-63
2023/03/15 11:37:48;;;;;;;12.88;8.95;;;;;;;13.38;44.14;98651.31;5063828;28;20032;-63